Time;durP1;ratioP1;P1;durP2;ratioP2;P2;SDS_P1;SDS_P2;PMS_P1;PMS_P2;Temp;Humidity;BMP_temperature;BMP_pressure;BME280_temperature;BME280_humidity;BME280_pressure;Samples;Min_cycle;Max_cycle;Signal;HPM_P1;HPM_P2
2023/05/13 00:00:52;;;;;;;1.90;0.90;;;13.40;99.90;;;;;;5031272;28;20033;-89
2023/05/13 00:03:18;;;;;;;1.92;0.80;;;13.30;99.90;;;;;;5009380;28;20148;-89
2023/05/13 00:05:44;;;;;;;1.80;0.82;;;13.20;99.90;;;;;;5029257;28;20036;-89
2023/05/13 00:08:10;;;;;;;1.70;0.90;;;13.10;99.90;;;;;;5029156;28;20106;-89
2023/05/13 00:10:36;;;;;;;2.03;0.98;;;13.10;99.90;;;;;;5030334;28;20029;-89
2023/05/13 00:13:02;;;;;;;2.00;1.13;;;13.00;99.90;;;;;;5028702;28;20029;-88
2023/05/13 00:15:28;;;;;;;1.40;0.63;;;13.00;99.90;;;;;;5022834;28;20025;-88
2023/05/13 00:17:53;;;;;;;1.45;0.70;;;12.90;99.90;;;;;;5012221;28;20029;-88
2023/05/13 00:20:19;;;;;;;3.28;1.80;;;12.90;99.90;;;;;;5028812;28;20037;-90
2023/05/13 00:22:45;;;;;;;2.00;1.33;;;12.90;99.90;;;;;;5029872;28;20043;-88
2023/05/13 00:25:11;;;;;;;3.00;1.58;;;12.80;99.90;;;;;;5025734;28;20049;-88
2023/05/13 00:27:36;;;;;;;2.42;1.45;;;12.90;99.90;;;;;;5046704;28;20033;-89
2023/05/13 00:30:04;;;;;;;2.00;1.02;;;12.90;99.90;;;;;;5012282;28;20084;-88
2023/05/13 00:32:30;;;;;;;2.50;1.40;;;12.90;99.90;;;;;;5025929;28;20485;-90
2023/05/13 00:34:56;;;;;;;1.67;0.88;;;12.70;99.90;;;;;;5028148;28;20804;-88
2023/05/13 00:37:22;;;;;;;2.42;1.45;;;12.70;99.90;;;;;;5022450;28;20033;-88
2023/05/13 00:39:47;;;;;;;2.05;0.95;;;12.70;99.90;;;;;;5009335;28;20044;-89
2023/05/13 00:42:14;;;;;;;2.03;1.33;;;12.60;99.90;;;;;;5029444;28;20116;-89
2023/05/13 00:44:40;;;;;;;1.83;1.10;;;12.60;99.90;;;;;;5028787;28;20116;-88
2023/05/13 00:47:06;;;;;;;2.65;1.27;;;12.50;99.90;;;;;;5043875;28;20102;-89
2023/05/13 00:49:32;;;;;;;3.97;1.35;;;12.50;99.90;;;;;;5028475;28;20017;-89
2023/05/13 00:51:59;;;;;;;4.90;1.35;;;12.40;99.90;;;;;;5012392;28;20123;-88
2023/05/13 00:54:25;;;;;;;1.75;0.90;;;12.40;99.90;;;;;;5011228;28;20296;-88
2023/05/13 00:56:55;;;;;;;3.45;0.90;;;12.40;99.90;;;;;;5030017;28;20256;-89
2023/05/13 00:59:23;;;;;;;1.70;0.80;;;12.30;99.90;;;;;;5011049;28;20025;-88
2023/05/13 01:02:17;;;;;;;2.63;1.20;;;12.30;99.90;;;;;;5043948;28;20025;-87
2023/05/13 01:04:57;;;;;;;1.58;0.63;;;12.20;99.90;;;;;;5028160;28;20029;-88
2023/05/13 01:07:50;;;;;;;1.42;0.70;;;12.10;99.90;;;;;;5023547;28;20044;-88
2023/05/13 01:10:38;;;;;;;1.65;0.88;;;12.10;99.90;;;;;;5025349;28;20404;-88
2023/05/13 01:13:11;;;;;;;1.70;0.88;;;12.10;99.90;;;;;;5026889;28;20032;-88
2023/05/13 01:15:48;;;;;;;3.13;0.88;;;12.00;99.90;;;;;;5027529;28;20087;-88
2023/05/13 01:18:28;;;;;;;4.70;1.13;;;12.00;99.90;;;;;;5023647;28;20017;-88
2023/05/13 01:20:55;;;;;;;1.50;0.85;;;11.90;99.90;;;;;;5028081;28;20036;-86
2023/05/13 01:23:20;;;;;;;1.95;0.90;;;11.80;99.90;;;;;;5019460;28;20028;-88
2023/05/13 01:25:46;;;;;;;1.70;0.90;;;11.70;99.90;;;;;;5027110;28;20033;-88
2023/05/13 01:28:12;;;;;;;2.75;1.38;;;11.70;99.90;;;;;;5013247;28;20032;-89
2023/05/13 01:30:41;;;;;;;3.03;1.02;;;11.70;99.90;;;;;;5030306;28;20017;-88
2023/05/13 01:33:08;;;;;;;1.90;0.75;;;11.70;99.90;;;;;;5011945;28;20370;-88
2023/05/13 01:35:34;;;;;;;1.50;0.80;;;11.60;99.90;;;;;;5027479;28;20029;-88
2023/05/13 01:38:01;;;;;;;3.20;1.20;;;11.60;99.90;;;;;;5009097;28;20401;-88
2023/05/13 01:40:28;;;;;;;2.00;0.90;;;11.50;99.90;;;;;;5028706;28;20466;-88
2023/05/13 01:42:54;;;;;;;2.72;0.90;;;11.50;99.90;;;;;;5028339;28;20087;-86
2023/05/13 01:45:20;;;;;;;3.78;1.67;;;11.50;99.90;;;;;;5031843;28;20029;-88
2023/05/13 01:47:45;;;;;;;2.65;1.17;;;11.50;99.90;;;;;;5033606;28;20071;-89
2023/05/13 01:50:12;;;;;;;2.17;1.00;;;11.50;99.90;;;;;;5031902;28;20033;-88
2023/05/13 01:52:39;;;;;;;2.08;1.38;;;11.40;99.90;;;;;;5032527;28;20033;-89
2023/05/13 01:55:05;;;;;;;2.88;1.33;;;11.30;99.90;;;;;;5030137;28;20038;-85
2023/05/13 01:57:31;;;;;;;2.83;1.23;;;11.30;99.90;;;;;;5034185;28;20063;-89
2023/05/13 01:59:57;;;;;;;1.63;0.88;;;11.30;99.90;;;;;;5032417;28;20072;-87
2023/05/13 02:02:23;;;;;;;2.22;0.82;;;11.30;99.90;;;;;;5031732;28;20029;-88
2023/05/13 02:04:49;;;;;;;1.90;1.00;;;11.10;99.90;;;;;;5015314;28;20026;-88
2023/05/13 02:07:15;;;;;;;5.28;1.50;;;11.20;99.90;;;;;;5030223;28;20038;-88
2023/05/13 02:09:43;;;;;;;2.10;1.17;;;11.20;99.90;;;;;;5033353;28;20037;-88
2023/05/13 02:12:08;;;;;;;2.28;1.40;;;11.10;99.90;;;;;;5031595;28;20033;-88
2023/05/13 02:14:34;;;;;;;2.13;1.13;;;11.10;99.90;;;;;;5016097;28;20187;-87
2023/05/13 02:17:02;;;;;;;3.75;1.75;;;11.10;99.90;;;;;;5031801;28;20028;-88
2023/05/13 02:19:27;;;;;;;1.88;1.02;;;11.10;99.90;;;;;;5028462;28;20021;-88
2023/05/13 02:21:53;;;;;;;2.30;1.13;;;11.20;99.90;;;;;;5047690;28;20390;-90
2023/05/13 02:24:19;;;;;;;2.30;1.08;;;11.10;99.90;;;;;;5016477;28;20040;-87
2023/05/13 02:26:45;;;;;;;1.63;1.05;;;11.20;99.90;;;;;;5043199;28;20091;-88
2023/05/13 02:29:10;;;;;;;2.00;1.25;;;11.10;99.90;;;;;;5015005;28;20025;-85
2023/05/13 02:31:36;;;;;;;2.65;1.02;;;11.10;99.90;;;;;;5029900;28;20459;-87
2023/05/13 02:34:02;;;;;;;1.92;1.30;;;11.10;99.90;;;;;;5013621;28;20034;-89
2023/05/13 02:36:28;;;;;;;2.33;1.27;;;11.10;99.90;;;;;;5028833;28;20075;-88
2023/05/13 02:38:53;;;;;;;2.53;1.95;;;11.00;99.90;;;;;;5045883;28;20029;-89
2023/05/13 02:41:19;;;;;;;2.67;1.77;;;11.00;99.90;;;;;;5047115;28;20542;-88
2023/05/13 02:43:48;;;;;;;3.45;1.33;;;11.00;99.90;;;;;;5016970;28;20060;-87
2023/05/13 02:46:14;;;;;;;1.80;1.15;;;10.90;99.90;;;;;;5031624;28;20029;-89
2023/05/13 02:48:40;;;;;;;1.95;1.15;;;10.90;99.90;;;;;;5014205;28;20025;-85
2023/05/13 02:51:05;;;;;;;2.20;1.30;;;10.90;99.90;;;;;;5025748;28;20412;-87
2023/05/13 02:53:31;;;;;;;2.42;1.30;;;10.80;99.90;;;;;;5027997;28;20059;-89
2023/05/13 02:56:02;;;;;;;2.60;1.20;;;10.70;99.90;;;;;;5023662;28;20063;-88
2023/05/13 02:58:27;;;;;;;1.67;1.17;;;10.80;99.90;;;;;;5030495;28;20021;-88
2023/05/13 03:00:54;;;;;;;1.88;1.30;;;10.70;99.90;;;;;;5032534;28;20033;-89
2023/05/13 03:03:22;;;;;;;2.60;1.95;;;10.70;99.90;;;;;;5014908;28;20028;-88
2023/05/13 03:05:48;;;;;;;2.78;2.40;;;10.70;99.90;;;;;;5029682;28;20033;-88
2023/05/13 03:08:14;;;;;;;3.67;2.00;;;10.70;99.90;;;;;;5027460;28;20029;-87
2023/05/13 03:10:39;;;;;;;5.13;2.78;;;10.70;99.90;;;;;;5010253;28;20029;-88
2023/05/13 03:13:05;;;;;;;3.35;2.35;;;10.70;99.90;;;;;;5029664;28;20033;-88
2023/05/13 03:15:31;;;;;;;3.58;2.47;;;10.60;99.90;;;;;;5011772;28;20033;-88
2023/05/13 03:17:57;;;;;;;2.88;2.17;;;10.60;99.90;;;;;;5033284;28;20026;-88
2023/05/13 03:20:23;;;;;;;2.90;2.20;;;10.60;99.90;;;;;;5013709;28;20036;-88
2023/05/13 03:22:48;;;;;;;5.45;2.10;;;10.60;99.90;;;;;;5044638;28;20412;-89
2023/05/13 03:25:14;;;;;;;3.35;2.17;;;10.60;99.90;;;;;;5010768;28;20500;-88
2023/05/13 03:27:45;;;;;;;3.15;1.58;;;10.50;99.90;;;;;;5026780;28;20568;-88
2023/05/13 03:30:12;;;;;;;3.10;2.35;;;10.50;99.90;;;;;;5011252;28;20033;-87
2023/05/13 03:32:46;;;;;;;3.70;2.88;;;10.50;99.90;;;;;;5021927;28;20112;-88
2023/05/13 03:35:12;;;;;;;3.80;2.25;;;10.40;99.90;;;;;;5031794;28;20025;-87
2023/05/13 03:37:38;;;;;;;3.50;2.67;;;10.40;99.90;;;;;;5028245;28;20390;-89
2023/05/13 03:40:05;;;;;;;3.72;2.38;;;10.30;99.90;;;;;;5031728;28;20079;-88
2023/05/13 03:42:32;;;;;;;2.92;2.08;;;10.30;99.90;;;;;;5024074;28;20429;-88
2023/05/13 03:45:00;;;;;;;5.00;2.38;;;10.30;99.90;;;;;;5029216;28;20087;-89
2023/05/13 03:47:26;;;;;;;4.68;2.55;;;10.20;99.90;;;;;;5030257;28;20437;-84
2023/05/13 03:49:56;;;;;;;3.72;1.67;;;10.30;99.90;;;;;;5048557;28;20029;-87
2023/05/13 03:52:23;;;;;;;2.78;2.25;;;10.30;99.90;;;;;;5045523;28;20076;-88
2023/05/13 03:54:48;;;;;;;3.03;2.10;;;10.20;99.90;;;;;;5030034;28;20021;-88
2023/05/13 03:57:14;;;;;;;3.38;2.13;;;10.20;99.90;;;;;;5044484;28;20029;-89
2023/05/13 03:59:40;;;;;;;2.50;1.52;;;10.20;99.90;;;;;;5030270;28;20021;-86
2023/05/13 04:02:05;;;;;;;2.90;2.28;;;10.20;99.90;;;;;;5029026;28;20091;-88
2023/05/13 04:04:31;;;;;;;2.78;1.83;;;10.20;99.90;;;;;;5027853;28;20029;-84
2023/05/13 04:06:57;;;;;;;3.67;1.98;;;10.20;99.90;;;;;;5029421;28;20040;-88
2023/05/13 04:09:24;;;;;;;4.78;3.67;;;10.30;99.90;;;;;;5045595;28;20294;-87
2023/05/13 04:11:50;;;;;;;4.00;2.50;;;10.20;99.90;;;;;;5012129;28;20048;-85
2023/05/13 04:14:15;;;;;;;3.47;2.58;;;10.30;99.90;;;;;;5031774;28;20197;-88
2023/05/13 04:16:42;;;;;;;4.18;3.40;;;10.30;99.90;;;;;;5029658;28;20035;-85
2023/05/13 04:19:08;;;;;;;3.30;2.65;;;10.30;99.90;;;;;;5029049;28;20101;-84
2023/05/13 04:21:33;;;;;;;3.75;2.45;;;10.30;99.90;;;;;;5029264;28;20481;-87
2023/05/13 04:23:59;;;;;;;4.68;2.88;;;10.30;99.90;;;;;;5012428;28;20044;-86
2023/05/13 04:26:24;;;;;;;4.82;3.42;;;10.30;99.90;;;;;;5030327;28;20037;-87
2023/05/13 04:28:50;;;;;;;3.38;3.08;;;10.30;99.90;;;;;;5008226;28;20021;-88
2023/05/13 04:31:17;;;;;;;4.25;3.03;;;10.30;99.90;;;;;;5011546;28;20037;-89
2023/05/13 04:33:44;;;;;;;4.43;3.47;;;10.30;99.90;;;;;;5012683;28;20020;-88
2023/05/13 04:36:09;;;;;;;3.42;2.70;;;10.30;99.90;;;;;;5025916;28;20049;-85
2023/05/13 04:38:36;;;;;;;4.00;2.83;;;10.40;99.90;;;;;;5029546;28;20067;-89
2023/05/13 04:41:02;;;;;;;10.93;5.65;;;10.40;99.90;;;;;;5011675;28;20044;-87
2023/05/13 04:43:33;;;;;;;5.78;5.20;;;10.40;99.90;;;;;;5024081;28;20375;-88
2023/05/13 04:46:00;;;;;;;4.95;4.00;;;10.40;99.90;;;;;;5012241;28;20045;-88
2023/05/13 04:48:26;;;;;;;6.05;3.88;;;10.40;99.90;;;;;;5006529;28;20478;-87
2023/05/13 04:50:52;;;;;;;3.60;3.30;;;10.40;99.90;;;;;;5010405;28;20437;-89
2023/05/13 04:53:18;;;;;;;4.15;2.95;;;10.40;99.90;;;;;;5023345;28;20021;-87
2023/05/13 04:55:49;;;;;;;2.40;1.90;;;10.40;99.90;;;;;;5008585;28;20072;-89
2023/05/13 04:58:15;;;;;;;2.90;2.60;;;10.50;99.90;;;;;;5010689;28;20124;-88
2023/05/13 05:00:41;;;;;;;3.95;3.05;;;10.50;99.90;;;;;;5008227;28;20056;-88
2023/05/13 05:03:06;;;;;;;3.80;3.40;;;10.70;99.90;;;;;;5010895;28;20049;-89
2023/05/13 05:05:32;;;;;;;3.92;3.47;;;10.80;99.90;;;;;;5022995;28;20479;-85
2023/05/13 05:07:58;;;;;;;4.07;3.67;;;11.00;99.90;;;;;;5024186;28;20394;-88
2023/05/13 05:10:24;;;;;;;4.53;4.03;;;11.10;99.90;;;;;;5008232;28;20025;-88
2023/05/13 05:12:54;;;;;;;7.38;4.47;;;11.10;99.90;;;;;;5012256;28;20048;-88
2023/05/13 05:15:20;;;;;;;6.03;4.28;;;11.20;99.90;;;;;;5006124;28;20076;-85
2023/05/13 05:17:49;;;;;;;5.07;4.65;;;11.20;99.90;;;;;;5004423;28;20025;-90
2023/05/13 05:20:15;;;;;;;6.63;4.35;;;11.30;99.90;;;;;;5010226;28;20029;-88
2023/05/13 05:22:41;;;;;;;5.07;3.88;;;11.30;99.90;;;;;;5025433;28;20493;-87
2023/05/13 05:25:09;;;;;;;5.90;5.40;;;11.40;99.90;;;;;;5004824;28;20128;-86
2023/05/13 05:27:35;;;;;;;5.78;5.28;;;11.40;99.90;;;;;;5019588;28;20034;-88
2023/05/13 05:30:01;;;;;;;6.88;5.80;;;11.50;99.90;;;;;;5040779;28;20033;-89
2023/05/13 05:32:29;;;;;;;6.03;4.88;;;11.50;99.90;;;;;;5008009;28;20037;-89
2023/05/13 05:34:55;;;;;;;6.65;5.28;;;11.50;99.90;;;;;;5011119;28;20120;-86
2023/05/13 05:37:21;;;;;;;6.05;5.45;;;11.40;99.90;;;;;;5008684;28;20043;-89
2023/05/13 05:39:46;;;;;;;6.60;5.75;;;11.50;99.90;;;;;;5008596;28;20027;-84
2023/05/13 05:42:12;;;;;;;6.50;5.45;;;11.50;99.90;;;;;;5037159;28;20021;-89
2023/05/13 05:44:38;;;;;;;7.63;6.60;;;11.60;99.90;;;;;;5024300;28;20107;-90
2023/05/13 05:47:04;;;;;;;7.10;4.72;;;11.60;99.90;;;;;;5015265;28;20429;-87
2023/05/13 05:49:30;;;;;;;7.18;5.82;;;11.60;99.90;;;;;;5017789;28;20025;-89
2023/05/13 05:51:56;;;;;;;7.05;5.47;;;11.60;99.90;;;;;;5008517;28;20037;-88
2023/05/13 05:54:23;;;;;;;4.38;3.97;;;11.80;99.90;;;;;;5008415;28;20022;-88
2023/05/13 05:56:48;;;;;;;6.00;5.40;;;11.90;99.90;;;;;;5020731;28;20036;-90
2023/05/13 05:59:14;;;;;;;9.27;6.38;;;11.80;99.90;;;;;;5023045;28;20030;-87
2023/05/13 06:01:40;;;;;;;8.13;7.32;;;11.80;99.90;;;;;;5021908;28;20025;-88
2023/05/13 06:04:05;;;;;;;6.85;6.10;;;11.80;99.90;;;;;;5011222;28;20469;-84
2023/05/13 06:06:32;;;;;;;5.32;4.50;;;11.70;99.90;;;;;;5024312;28;20052;-89
2023/05/13 06:08:58;;;;;;;5.07;4.50;;;11.80;99.90;;;;;;5008064;28;20034;-89
2023/05/13 06:11:24;;;;;;;5.90;5.22;;;12.20;99.90;;;;;;5010896;28;20128;-89
2023/05/13 06:13:52;;;;;;;4.03;3.63;;;12.50;99.90;;;;;;5011059;28;20057;-89
2023/05/13 06:16:18;;;;;;;5.50;5.00;;;12.70;99.90;;;;;;5011427;28;20049;-90
2023/05/13 06:18:43;;;;;;;8.68;6.88;;;13.00;99.90;;;;;;5008808;28;20099;-89
2023/05/13 06:21:09;;;;;;;7.82;6.78;;;13.00;99.90;;;;;;5018651;28;20119;-88
2023/05/13 06:23:35;;;;;;;7.97;6.10;;;12.80;99.90;;;;;;5007897;28;20033;-91
2023/05/13 06:26:00;;;;;;;8.65;6.95;;;12.60;99.90;;;;;;5020549;28;20033;-89
2023/05/13 06:28:29;;;;;;;6.93;5.63;;;12.50;99.90;;;;;;5013104;28;20025;-91
2023/05/13 06:30:55;;;;;;;7.60;6.95;;;12.40;99.90;;;;;;5012863;28;20043;-90
2023/05/13 06:33:21;;;;;;;6.90;6.20;;;12.30;99.90;;;;;;5008684;28;20053;-89
2023/05/13 06:35:48;;;;;;;5.38;4.70;;;12.40;99.90;;;;;;5011337;28;20060;-89
2023/05/13 06:38:18;;;;;;;4.72;4.25;;;12.70;99.90;;;;;;5027005;28;20035;-88
2023/05/13 06:40:45;;;;;;;6.20;4.43;;;13.30;99.90;;;;;;5010595;28;20025;-86
2023/05/13 06:43:13;;;;;;;5.47;5.07;;;13.80;99.90;;;;;;5030645;28;20076;-90
2023/05/13 06:45:43;;;;;;;5.80;5.28;;;13.90;99.90;;;;;;5022337;28;20026;-89
2023/05/13 06:48:09;;;;;;;4.40;3.60;;;14.10;99.90;;;;;;5026504;28;20036;-90
2023/05/13 06:50:36;;;;;;;6.57;5.97;;;14.30;99.90;;;;;;5013635;28;20053;-89
2023/05/13 06:53:02;;;;;;;7.55;5.90;;;14.40;99.90;;;;;;5014574;28;20025;-89
2023/05/13 06:55:28;;;;;;;8.88;6.70;;;14.60;99.90;;;;;;5010306;28;20021;-89
2023/05/13 06:57:53;;;;;;;8.52;7.07;;;14.50;99.90;;;;;;5010839;28;20032;-90
2023/05/13 07:00:19;;;;;;;6.95;5.43;;;14.50;99.90;;;;;;5026859;28;20037;-88
2023/05/13 07:02:45;;;;;;;7.68;6.15;;;14.80;99.90;;;;;;5030618;28;20076;-88
2023/05/13 07:05:11;;;;;;;8.27;7.25;;;14.90;99.90;;;;;;5011202;28;20391;-90
2023/05/13 07:07:37;;;;;;;6.57;5.85;;;14.90;99.90;;;;;;5012533;28;20041;-86
2023/05/13 07:10:03;;;;;;;6.18;5.30;;;15.30;99.90;;;;;;5026294;28;20109;-89
2023/05/13 07:12:28;;;;;;;5.45;4.53;;;15.40;99.90;;;;;;5025912;28;20033;-88
2023/05/13 07:14:54;;;;;;;6.15;4.78;;;15.60;99.90;;;;;;5013707;28;20022;-86
2023/05/13 07:17:20;;;;;;;4.43;3.83;;;15.80;99.90;;;;;;5007701;28;20022;-85
2023/05/13 07:19:46;;;;;;;5.28;4.75;;;16.10;99.90;;;;;;5025148;28;20390;-87
2023/05/13 07:22:12;;;;;;;7.18;6.28;;;16.00;99.90;;;;;;5029398;28;20022;-90
2023/05/13 07:24:37;;;;;;;7.78;7.00;;;15.90;99.90;;;;;;5009386;28;20044;-88
2023/05/13 07:27:03;;;;;;;7.50;6.72;;;15.60;99.90;;;;;;5003585;28;20066;-87
2023/05/13 07:29:31;;;;;;;6.32;5.70;;;15.60;99.90;;;;;;5008159;28;20025;-89
2023/05/13 07:31:56;;;;;;;7.07;6.35;;;15.90;99.90;;;;;;5003511;28;20367;-88
2023/05/13 07:34:22;;;;;;;7.13;6.43;;;16.10;99.90;;;;;;5014088;28;20033;-87
2023/05/13 07:36:48;;;;;;;8.25;5.88;;;15.90;99.90;;;;;;5009164;28;20057;-87
2023/05/13 07:39:18;;;;;;;4.65;4.25;;;16.10;99.90;;;;;;5006585;28;20021;-86
2023/05/13 07:41:46;;;;;;;4.50;4.10;;;16.60;99.90;;;;;;5010381;28;20037;-85
2023/05/13 07:44:12;;;;;;;5.72;5.00;;;16.80;99.90;;;;;;5009166;28;20110;-87
2023/05/13 07:46:37;;;;;;;5.78;5.28;;;16.60;99.90;;;;;;5000240;28;20426;-85
2023/05/13 07:49:05;;;;;;;5.38;4.40;;;16.50;99.90;;;;;;5034149;28;20048;-85
2023/05/13 07:51:31;;;;;;;4.28;3.80;;;16.80;99.90;;;;;;5002591;28;20433;-86
2023/05/13 07:53:57;;;;;;;5.32;4.82;;;17.00;99.90;;;;;;5020805;28;20060;-86
2023/05/13 07:56:23;;;;;;;6.22;5.22;;;17.10;99.90;;;;;;5008575;28;20064;-86
2023/05/13 07:58:49;;;;;;;8.88;5.50;;;16.90;99.90;;;;;;5023018;28;20091;-87
2023/05/13 08:01:15;;;;;;;5.30;4.80;;;16.90;99.90;;;;;;5005414;28;20064;-86
2023/05/13 08:03:41;;;;;;;6.93;6.00;;;17.30;99.90;;;;;;5007424;28;20548;-84
2023/05/13 08:06:06;;;;;;;7.35;6.55;;;16.90;99.90;;;;;;5023565;28;20034;-85
2023/05/13 08:08:32;;;;;;;7.25;5.72;;;16.80;99.90;;;;;;5024237;28;20033;-86
2023/05/13 08:10:57;;;;;;;7.63;5.63;;;17.10;99.90;;;;;;5025142;28;20414;-86
2023/05/13 08:13:24;;;;;;;7.07;5.88;;;17.20;99.90;;;;;;5023569;28;20483;-88
2023/05/13 08:15:51;;;;;;;6.25;4.82;;;17.00;99.90;;;;;;5002367;28;20026;-85
2023/05/13 08:18:17;;;;;;;6.00;5.40;;;17.20;99.90;;;;;;5004935;28;20025;-86
2023/05/13 08:20:43;;;;;;;6.05;4.88;;;17.60;99.90;;;;;;5000550;28;20099;-86
2023/05/13 08:23:08;;;;;;;3.70;2.17;;;18.00;99.90;;;;;;5007066;28;20048;-87
2023/05/13 08:25:34;;;;;;;5.68;3.38;;;18.50;99.90;;;;;;5001606;28;20029;-85
2023/05/13 08:28:02;;;;;;;6.70;5.85;;;18.30;99.90;;;;;;5018642;28;20401;-86
2023/05/13 08:30:27;;;;;;;3.60;3.22;;;17.70;99.90;;;;;;5018602;28;20021;-86
2023/05/13 08:32:53;;;;;;;3.92;3.47;;;18.10;99.90;;;;;;5002344;28;20041;-86
2023/05/13 08:35:19;;;;;;;6.57;4.55;;;18.40;99.90;;;;;;5035623;28;20542;-88
2023/05/13 08:37:44;;;;;;;6.40;5.85;;;18.20;99.90;;;;;;5024018;28;20018;-86
2023/05/13 08:40:10;;;;;;;6.15;4.30;;;18.10;99.90;;;;;;4999518;28;20501;-86
2023/05/13 08:42:41;;;;;;;6.28;4.07;;;18.80;99.90;;;;;;5005769;28;20116;-85
2023/05/13 08:45:09;;;;;;;3.28;2.40;;;19.00;99.90;;;;;;5017303;28;20330;-86
2023/05/13 08:47:54;;;;;;;4.35;3.95;;;19.40;99.90;;;;;;5019020;28;20041;-85
2023/05/13 08:50:21;;;;;;;4.35;3.03;;;19.30;99.90;;;;;;5000301;28;20026;-87
2023/05/13 08:52:49;;;;;;;6.20;5.25;;;19.40;99.90;;;;;;5005949;28;20037;-86
2023/05/13 08:55:18;;;;;;;3.45;2.97;;;18.90;99.90;;;;;;5002100;28;20045;-88
2023/05/13 08:57:44;;;;;;;5.65;5.00;;;19.10;99.90;;;;;;5000607;28;20055;-88
2023/05/13 09:00:10;;;;;;;5.35;3.55;;;19.10;99.90;;;;;;5002894;28;20075;-89
2023/05/13 09:02:36;;;;;;;3.35;3.05;;;19.50;99.90;;;;;;5008168;28;20029;-88
2023/05/13 09:05:06;;;;;;;3.88;2.63;;;19.80;99.90;;;;;;5002725;28;20039;-89
2023/05/13 09:07:33;;;;;;;4.15;2.33;;;19.90;99.90;;;;;;5006581;28;20037;-89
2023/05/13 09:09:59;;;;;;;3.05;1.75;;;20.00;99.90;;;;;;5001519;28;20494;-90
2023/05/13 09:12:45;;;;;;;3.03;2.58;;;20.30;99.90;;;;;;5005960;28;20454;-90
2023/05/13 09:15:13;;;;;;;3.88;3.20;;;20.20;99.90;;;;;;5006865;28;20026;-88
2023/05/13 09:17:44;;;;;;;2.88;2.47;;;19.90;99.90;;;;;;5019055;28;20058;-88
2023/05/13 09:20:15;;;;;;;5.00;4.00;;;20.40;99.90;;;;;;5017848;28;20583;-88
2023/05/13 09:22:46;;;;;;;5.82;4.30;;;20.50;99.90;;;;;;5003843;28;20025;-91
2023/05/13 09:25:13;;;;;;;5.57;4.68;;;20.20;99.90;;;;;;5018919;28;20025;-88
2023/05/13 09:27:44;;;;;;;3.15;2.58;;;19.90;99.90;;;;;;5006775;28;20395;-90
2023/05/13 09:30:10;;;;;;;3.97;3.55;;;20.60;99.90;;;;;;5025126;28;20026;-88
2023/05/13 09:32:38;;;;;;;4.32;2.78;;;20.70;99.90;;;;;;5018010;28;20034;-89
2023/05/13 09:35:16;;;;;;;3.58;3.08;;;20.50;99.90;;;;;;5018764;28;20069;-88
2023/05/13 09:37:45;;;;;;;5.10;4.60;;;20.60;99.90;;;;;;5021258;28;20053;-89
2023/05/13 09:40:17;;;;;;;;;;;20.60;99.90;;;;;;5040345;28;20033;-92
2023/05/13 09:42:44;;;;;;;4.97;3.50;;;20.70;99.90;;;;;;5022717;28;19921;-91
2023/05/13 09:45:12;;;;;;;4.60;3.67;;;20.60;99.90;;;;;;5016420;28;20038;-88
2023/05/13 09:47:41;;;;;;;5.20;2.20;;;20.80;99.90;;;;;;5001794;28;20044;-89
2023/05/13 09:50:09;;;;;;;5.47;3.38;;;21.20;99.90;;;;;;5034976;28;20033;-88
2023/05/13 09:52:36;;;;;;;2.97;2.53;;;21.00;99.90;;;;;;5020260;28;20038;-85
2023/05/13 09:55:03;;;;;;;4.25;2.65;;;21.10;99.90;;;;;;5007818;28;20385;-88
2023/05/13 09:57:33;;;;;;;4.22;2.00;;;21.40;99.90;;;;;;5033885;28;20130;-88
2023/05/13 10:00:00;;;;;;;3.83;2.40;;;21.70;99.90;;;;;;5015508;28;20398;-89
2023/05/13 10:02:27;;;;;;;5.50;2.42;;;21.50;99.90;;;;;;5010181;28;20306;-86
2023/05/13 10:04:57;;;;;;;4.85;2.25;;;22.00;99.90;;;;;;5002602;28;20372;-90
2023/05/13 10:07:24;;;;;;;3.13;2.30;;;22.10;99.90;;;;;;5007112;28;20119;-86
2023/05/13 10:10:01;;;;;;;4.78;2.50;;;22.00;99.90;;;;;;5040127;28;20034;-88
2023/05/13 10:12:28;;;;;;;3.10;0.98;;;21.80;99.90;;;;;;5021364;28;20061;-87
2023/05/13 10:14:54;;;;;;;3.08;1.83;;;22.60;99.90;;;;;;5022171;28;20070;-90
2023/05/13 10:17:23;;;;;;;2.45;1.70;;;22.30;99.90;;;;;;5019926;28;20029;-86
2023/05/13 10:19:53;;;;;;;3.17;2.25;;;22.60;99.90;;;;;;5036551;28;20025;-88
2023/05/13 10:22:30;;;;;;;4.20;2.20;;;22.30;99.90;;;;;;5020285;28;20390;-87
2023/05/13 10:24:57;;;;;;;2.53;1.25;;;22.00;99.90;;;;;;5007146;28;20021;-87
2023/05/13 10:27:28;;;;;;;1.70;1.00;;;22.60;99.90;;;;;;5036381;28;20091;-87
2023/05/13 10:29:55;;;;;;;3.55;2.05;;;22.80;99.90;;;;;;5027125;28;20085;-88
2023/05/13 10:32:26;;;;;;;3.05;1.58;;;22.70;99.90;;;;;;5028376;28;20033;-88
2023/05/13 10:35:10;;;;;;;2.28;1.27;;;22.60;99.90;;;;;;5024593;28;20363;-88
2023/05/13 10:38:04;;;;;;;3.28;2.30;;;22.90;99.90;;;;;;5006523;28;20109;-89
2023/05/13 10:40:36;;;;;;;4.10;2.40;;;22.60;99.90;;;;;;5023732;28;20025;-89
2023/05/13 10:43:19;;;;;;;3.05;1.55;;;22.30;99.90;;;;;;5009168;28;20037;-88
2023/05/13 10:45:50;;;;;;;4.25;1.65;;;22.50;99.90;;;;;;5009436;28;20057;-90
2023/05/13 10:48:17;;;;;;;2.55;1.77;;;22.80;99.90;;;;;;5024921;28;20112;-87
2023/05/13 10:51:13;;;;;;;6.20;1.77;;;22.90;99.90;;;;;;5038826;28;20030;-89
2023/05/13 10:53:50;;;;;;;1.75;0.77;;;22.90;99.90;;;;;;5021232;28;20037;-88
2023/05/13 10:56:19;;;;;;;2.95;1.83;;;23.50;99.90;;;;;;5011313;28;20025;-87
2023/05/13 10:59:02;;;;;;;2.10;0.70;;;23.20;99.90;;;;;;5012045;28;20029;-87
2023/05/13 11:01:41;;;;;;;5.15;1.08;;;23.30;99.90;;;;;;5012732;28;20049;-85
2023/05/13 11:04:15;;;;;;;2.00;0.70;;;23.30;99.90;;;;;;5013032;28;20022;-85
2023/05/13 11:06:43;;;;;;;1.70;0.73;;;23.50;99.90;;;;;;5009888;28;20025;-86
2023/05/13 11:09:29;;;;;;;1.23;0.50;;;23.70;99.90;;;;;;5026729;28;20029;-85
2023/05/13 11:11:59;;;;;;;2.53;0.60;;;23.90;99.90;;;;;;5041048;28;20026;-86
2023/05/13 11:14:25;;;;;;;;;;;24.20;99.90;;;;;;5010690;28;20034;-84
2023/05/13 11:17:03;;;;;;;1.85;0.60;;;24.00;99.90;;;;;;5013732;28;19913;-87
2023/05/13 11:19:30;;;;;;;2.88;0.60;;;24.00;99.90;;;;;;5036720;28;20091;-86
2023/05/13 11:22:14;;;;;;;1.48;0.38;;;24.10;99.90;;;;;;5026958;28;20029;-85
2023/05/13 11:24:43;;;;;;;1.77;0.50;;;24.50;99.90;;;;;;5008860;28;20033;-87
2023/05/13 11:27:16;;;;;;;1.70;0.50;;;24.20;99.90;;;;;;5010310;28;20086;-87
2023/05/13 11:29:50;;;;;;;1.13;0.40;;;24.10;99.90;;;;;;5021216;28;20018;-89
2023/05/13 11:32:47;;;;;;;1.98;0.47;;;24.50;99.90;;;;;;5026995;28;20043;-88
2023/05/13 11:35:22;;;;;;;3.63;0.50;;;23.90;99.90;;;;;;5037523;28;20482;-86
2023/05/13 11:37:50;;;;;;;1.17;0.40;;;24.30;99.90;;;;;;5027236;28;20045;-86
2023/05/13 11:40:23;;;;;;;1.33;0.50;;;24.10;99.90;;;;;;5003365;28;20112;-87
2023/05/13 11:42:49;;;;;;;0.77;0.40;;;24.40;99.90;;;;;;5026393;28;20124;-86
2023/05/13 11:45:16;;;;;;;1.35;0.50;;;24.30;99.50;;;;;;5006424;28;20477;-85
2023/05/13 11:47:43;;;;;;;1.60;0.50;;;24.40;99.90;;;;;;5005095;28;20046;-84
2023/05/13 11:50:29;;;;;;;1.33;0.40;;;24.30;99.90;;;;;;5022126;28;20227;-85
2023/05/13 11:52:59;;;;;;;1.13;0.40;;;24.20;98.60;;;;;;5017651;28;20382;-87
2023/05/13 11:55:35;;;;;;;1.67;0.55;;;24.10;99.70;;;;;;5007547;28;20025;-87
2023/05/13 11:58:01;;;;;;;1.80;0.60;;;23.90;99.50;;;;;;5018945;28;20038;-89
2023/05/13 12:00:29;;;;;;;2.58;0.52;;;24.20;99.50;;;;;;5008292;28;20033;-89
2023/05/13 12:02:55;;;;;;;2.10;0.45;;;24.20;98.70;;;;;;5016229;28;20030;-86
2023/05/13 12:05:21;;;;;;;2.28;0.40;;;24.40;98.40;;;;;;5001329;28;20128;-86
2023/05/13 12:07:47;;;;;;;2.40;0.60;;;24.60;98.70;;;;;;5005284;28;20377;-87
2023/05/13 12:10:13;;;;;;;1.85;0.50;;;23.80;98.90;;;;;;5000741;28;20040;-89
2023/05/13 12:12:44;;;;;;;1.60;0.50;;;23.80;99.00;;;;;;5025056;28;20327;-86
2023/05/13 12:15:12;;;;;;;1.67;0.40;;;24.10;99.90;;;;;;5019118;28;20049;-84
2023/05/13 12:17:38;;;;;;;2.03;0.40;;;24.80;98.80;;;;;;5018389;28;20029;-87
2023/05/13 12:20:10;;;;;;;1.75;0.40;;;24.70;97.60;;;;;;5003101;28;20112;-88
2023/05/13 12:22:48;;;;;;;1.02;0.40;;;24.90;97.60;;;;;;5019596;28;20181;-89
2023/05/13 12:25:41;;;;;;;1.00;0.40;;;24.70;98.10;;;;;;5019188;28;20022;-88
2023/05/13 12:28:21;;;;;;;1.02;0.40;;;24.70;98.70;;;;;;5019061;28;20042;-87
2023/05/13 12:30:56;;;;;;;1.98;0.50;;;24.90;98.10;;;;;;5002315;28;20056;-87
2023/05/13 12:33:27;;;;;;;1.80;0.30;;;24.80;98.30;;;;;;5020393;28;20527;-88
2023/05/13 12:36:13;;;;;;;1.45;0.50;;;25.20;98.50;;;;;;5005093;28;20029;-87
2023/05/13 12:38:51;;;;;;;1.45;0.40;;;25.10;97.80;;;;;;5002572;28;20022;-86
2023/05/13 12:41:17;;;;;;;1.35;0.30;;;24.90;97.80;;;;;;5008664;28;20083;-88
2023/05/13 12:43:43;;;;;;;1.35;0.40;;;24.80;97.80;;;;;;5014881;28;20045;-87
2023/05/13 12:46:08;;;;;;;1.42;0.40;;;24.80;97.90;;;;;;5024622;28;20026;-90
2023/05/13 12:48:34;;;;;;;3.50;0.60;;;25.10;98.30;;;;;;5002197;28;20025;-91
2023/05/13 12:51:00;;;;;;;1.45;0.57;;;24.10;98.10;;;;;;5007729;28;20390;-90
2023/05/13 12:53:26;;;;;;;3.53;0.90;;;23.80;97.70;;;;;;5007306;28;20033;-89